createdAt,value
2018-12-05T00:02:31.042Z,33.87
2018-12-05T00:05:04.822Z,29.18
2018-12-05T00:07:38.513Z,34.48
2018-12-05T00:10:14.238Z,28.63
2018-12-05T00:12:48.539Z,26.90
2018-12-05T00:15:22.911Z,27.27
2018-12-05T00:17:56.980Z,23.97
2018-12-05T00:20:30.890Z,21.67
2018-12-05T00:23:04.724Z,19.07
2018-12-05T00:25:38.649Z,20.90
2018-12-05T00:28:13.803Z,24.03
2018-12-05T00:30:49.006Z,22.50
2018-12-05T00:33:24.151Z,21.13
2018-12-05T00:35:58.691Z,22.67
2018-12-05T00:38:34.211Z,24.27
2018-12-05T00:41:09.371Z,24.20
2018-12-05T00:43:43.363Z,21.60
2018-12-05T00:46:17.579Z,23.20
2018-12-05T00:48:52.275Z,21.53
2018-12-05T00:51:27.137Z,18.93
2018-12-05T00:54:01.158Z,16.90
2018-12-05T00:56:36.313Z,17.77
2018-12-05T00:59:10.228Z,15.80
2018-12-05T01:01:46.339Z,18.23
2018-12-05T01:04:21.386Z,17.90
2018-12-05T01:06:55.664Z,16.33
2018-12-05T01:09:30.178Z,17.27
2018-12-05T01:12:03.935Z,18.20
2018-12-05T01:14:38.029Z,13.70
2018-12-05T01:17:13.056Z,14.23
2018-12-05T01:19:47.033Z,16.30
2018-12-05T01:22:20.881Z,18.87
2018-12-05T01:24:56.184Z,17.27
2018-12-05T01:27:30.233Z,18.70
2018-12-05T01:30:03.846Z,19.47
2018-12-05T01:32:37.914Z,15.13
2018-12-05T01:35:11.852Z,15.90
2018-12-05T01:37:45.925Z,16.93
2018-12-05T01:40:23.041Z,12.13
2018-12-05T01:42:57.195Z,9.28
2018-12-05T01:45:31.660Z,11.33
2018-12-05T01:48:06.673Z,13.27
2018-12-05T01:50:40.737Z,11.30
2018-12-05T01:53:15.843Z,10.90
2018-12-05T01:55:51.082Z,10.97
2018-12-05T01:58:26.434Z,11.28
2018-12-05T02:01:01.274Z,7.33
2018-12-05T02:03:36.634Z,6.17
2018-12-05T02:06:13.196Z,8.47
2018-12-05T02:08:46.999Z,8.23
2018-12-05T02:11:21.106Z,9.33
2018-12-05T02:13:55.259Z,7.90
2018-12-05T02:16:29.421Z,5.87
2018-12-05T02:19:04.526Z,6.87
2018-12-05T02:21:38.095Z,6.57
2018-12-05T02:24:13.191Z,6.53
2018-12-05T02:26:48.084Z,5.78
2018-12-05T02:29:22.208Z,4.87
2018-12-05T02:31:56.438Z,6.47
2018-12-05T02:34:30.472Z,6.13
2018-12-05T02:37:04.498Z,6.97
2018-12-05T02:39:38.908Z,8.03
2018-12-05T02:42:12.951Z,4.95
2018-12-05T02:44:48.306Z,4.35
2018-12-05T02:47:22.593Z,5.67
2018-12-05T02:49:57.655Z,3.43
2018-12-05T02:52:31.382Z,7.27
2018-12-05T02:55:05.404Z,6.28
2018-12-05T02:57:39.433Z,3.20
2018-12-05T03:00:16.087Z,4.00
2018-12-05T03:02:51.864Z,5.12
2018-12-05T03:05:26.111Z,3.87
2018-12-05T03:08:00.056Z,6.87
2018-12-05T03:10:34.862Z,4.17
2018-12-05T03:13:09.725Z,3.47
2018-12-05T03:15:43.737Z,3.87
2018-12-05T03:18:17.505Z,3.62
2018-12-05T03:20:51.726Z,4.15
2018-12-05T03:23:25.491Z,4.55
2018-12-05T03:25:59.620Z,4.12
2018-12-05T03:28:33.840Z,4.62
2018-12-05T03:31:13.109Z,6.70
2018-12-05T03:33:47.941Z,8.63
2018-12-05T03:36:22.721Z,6.15
2018-12-05T03:38:56.828Z,7.08
2018-12-05T03:41:31.166Z,5.03
2018-12-05T03:44:06.187Z,4.97
2018-12-05T03:46:42.167Z,4.58
2018-12-05T03:49:16.237Z,5.10
2018-12-05T03:51:51.817Z,5.50
2018-12-05T03:54:26.011Z,3.70
2018-12-05T03:57:01.059Z,4.97
2018-12-05T03:59:35.810Z,4.17
2018-12-05T04:02:10.717Z,9.07
2018-12-05T04:04:45.794Z,7.95
2018-12-05T04:07:19.932Z,8.50
2018-12-05T04:09:53.606Z,10.20
2018-12-05T04:12:27.832Z,7.45
2018-12-05T04:15:02.738Z,8.77
2018-12-05T04:17:37.275Z,7.72
2018-12-05T04:20:15.252Z,8.83
2018-12-05T04:22:49.921Z,8.13
2018-12-05T04:25:25.114Z,7.55
2018-12-05T04:27:59.288Z,15.03
2018-12-05T04:30:34.792Z,7.62
2018-12-05T04:33:11.177Z,8.35
2018-12-05T04:35:45.567Z,8.55
2018-12-05T04:38:20.596Z,11.63
2018-12-05T04:40:54.919Z,9.65
2018-12-05T04:43:30.422Z,9.23
2018-12-05T04:46:05.912Z,9.77
2018-12-05T04:48:41.578Z,10.95
2018-12-05T04:51:16.766Z,9.88
2018-12-05T04:53:52.185Z,11.20
2018-12-05T04:56:26.242Z,12.20
2018-12-05T04:59:01.549Z,13.13
2018-12-05T05:01:38.259Z,11.12
2018-12-05T05:04:15.028Z,9.33
2018-12-05T05:06:54.033Z,8.60
2018-12-05T05:09:29.253Z,8.98
2018-12-05T05:12:04.561Z,9.48
2018-12-05T05:14:38.673Z,9.18
2018-12-05T05:17:18.940Z,7.27
2018-12-05T05:19:53.096Z,8.35
2018-12-05T05:22:31.810Z,8.46
2018-12-05T05:25:10.176Z,9.53
2018-12-05T05:27:46.013Z,9.28
2018-12-05T05:30:20.199Z,10.48
2018-12-05T05:32:55.361Z,8.48
2018-12-05T05:35:29.475Z,8.55
2018-12-05T05:38:03.545Z,7.85
2018-12-05T05:40:37.542Z,8.38
2018-12-05T05:43:15.723Z,8.35
2018-12-05T05:45:49.495Z,8.00
2018-12-05T05:48:23.891Z,9.95
2018-12-05T05:50:58.396Z,6.83
2018-12-05T05:53:32.187Z,7.12
2018-12-05T05:56:06.375Z,10.65
2018-12-05T05:58:40.447Z,6.87
2018-12-05T06:01:16.073Z,9.00
2018-12-05T06:03:51.408Z,7.83
2018-12-05T06:06:26.563Z,10.58
2018-12-05T06:09:00.581Z,9.23
2018-12-05T06:11:36.484Z,13.67
2018-12-05T06:14:10.362Z,8.60
2018-12-05T06:16:44.620Z,8.18
2018-12-05T06:19:19.866Z,7.87
2018-12-05T06:21:54.149Z,8.78
2018-12-05T06:24:28.193Z,7.65
2018-12-05T06:27:03.575Z,7.33
2018-12-05T06:29:41.293Z,8.35
2018-12-05T06:32:17.558Z,7.80
2018-12-05T06:34:51.687Z,7.60
2018-12-05T06:37:25.606Z,7.62
2018-12-05T06:40:00.366Z,7.40
2018-12-05T06:42:34.473Z,7.65
2018-12-05T06:45:09.979Z,8.00
2018-12-05T06:47:43.743Z,8.45
2018-12-05T06:50:17.665Z,8.00
2018-12-05T06:52:52.238Z,8.38
2018-12-05T06:55:26.125Z,9.48
2018-12-05T06:58:01.053Z,9.06
2018-12-05T07:00:34.951Z,8.63
2018-12-05T07:03:09.137Z,9.98
2018-12-05T07:05:44.239Z,10.80
2018-12-05T07:08:20.158Z,8.88
2018-12-05T07:10:54.010Z,9.00
2018-12-05T07:13:27.988Z,8.65
2018-12-05T07:16:04.606Z,8.73
2018-12-05T07:18:39.228Z,8.45
2018-12-05T07:21:12.886Z,9.98
2018-12-05T07:23:47.304Z,8.65
2018-12-05T07:26:21.332Z,8.03
2018-12-05T07:28:55.415Z,8.75
2018-12-05T07:31:30.641Z,8.83
2018-12-05T07:34:05.240Z,9.68
2018-12-05T07:36:39.648Z,8.20
2018-12-05T07:39:14.155Z,8.35
2018-12-05T07:41:48.030Z,8.38
2018-12-05T07:44:22.355Z,8.93
2018-12-05T07:46:56.479Z,8.98
2018-12-05T07:49:32.225Z,8.18
2018-12-05T07:52:06.725Z,7.10
2018-12-05T07:54:41.421Z,7.93
2018-12-05T07:57:16.035Z,8.65
2018-12-05T07:59:50.368Z,7.45
2018-12-05T08:02:24.901Z,7.53
2018-12-05T08:04:59.884Z,7.58
2018-12-05T08:07:33.077Z,7.40
2018-12-05T08:10:08.287Z,7.47
2018-12-05T08:12:52.508Z,7.03
2018-12-05T08:15:26.754Z,7.50
2018-12-05T08:18:02.224Z,5.95
2018-12-05T08:20:37.088Z,5.90
2018-12-05T08:23:12.312Z,5.83
2018-12-05T08:25:46.095Z,6.62
2018-12-05T08:28:22.995Z,6.15
2018-12-05T08:30:57.421Z,5.55
2018-12-05T08:33:31.354Z,4.22
2018-12-05T08:36:05.845Z,6.05
2018-12-05T08:38:44.089Z,4.72
2018-12-05T08:41:19.846Z,4.50
2018-12-05T08:43:54.460Z,4.58
2018-12-05T08:46:28.925Z,4.17
2018-12-05T08:51:43.136Z,5.50
2018-12-05T08:54:21.056Z,4.83
2018-12-05T08:56:58.517Z,3.92
2018-12-05T08:59:36.998Z,4.50
2018-12-05T09:02:12.611Z,5.03
2018-12-05T09:04:47.124Z,4.37
2018-12-05T09:07:21.156Z,4.80
2018-12-05T09:09:54.756Z,4.60
2018-12-05T09:12:29.988Z,5.13
2018-12-05T09:15:04.989Z,3.83
2018-12-05T09:17:38.995Z,6.45
2018-12-05T09:20:13.226Z,5.30
2018-12-05T09:22:47.191Z,6.20
2018-12-05T09:25:20.935Z,6.77
2018-12-05T09:27:55.414Z,4.75
2018-12-05T09:30:29.790Z,4.85
2018-12-05T09:33:04.167Z,4.62
2018-12-05T09:35:38.275Z,4.90
2018-12-05T09:38:13.202Z,5.37
2018-12-05T09:40:47.662Z,4.73
2018-12-05T09:43:21.478Z,5.25
2018-12-05T09:45:56.813Z,5.35
2018-12-05T09:48:31.038Z,7.40
2018-12-05T09:51:06.443Z,12.60
2018-12-05T09:53:40.426Z,6.07
2018-12-05T09:56:15.341Z,4.97
2018-12-05T09:58:49.450Z,5.60
2018-12-05T10:01:23.960Z,6.33
2018-12-05T10:03:58.200Z,4.70
2018-12-05T10:06:33.045Z,4.67
2018-12-05T10:09:09.214Z,4.25
2018-12-05T10:11:44.881Z,4.10
2018-12-05T10:14:19.884Z,4.60
2018-12-05T10:16:54.232Z,4.13
2018-12-05T10:19:28.157Z,4.00
2018-12-05T10:22:02.990Z,3.83
2018-12-05T10:24:36.657Z,5.23
2018-12-05T10:27:11.813Z,5.17
2018-12-05T10:29:45.890Z,5.63
2018-12-05T10:32:20.817Z,5.80
2018-12-05T10:34:55.648Z,4.20
2018-12-05T10:37:29.958Z,4.50
2018-12-05T10:40:04.046Z,4.08
2018-12-05T10:42:38.297Z,4.40
2018-12-05T10:45:12.369Z,4.95
2018-12-05T10:47:46.853Z,4.37
2018-12-05T10:50:20.929Z,5.90
2018-12-05T10:52:54.726Z,4.97
2018-12-05T10:55:30.379Z,4.27
2018-12-05T10:58:04.120Z,5.00
2018-12-05T11:00:42.102Z,4.97
2018-12-05T11:03:20.992Z,6.28
2018-12-05T11:06:00.693Z,5.30
2018-12-05T11:08:42.389Z,6.30
2018-12-05T11:11:20.413Z,4.93
2018-12-05T11:13:58.456Z,6.07
2018-12-05T11:16:38.161Z,4.07
2018-12-05T11:19:16.389Z,4.77
2018-12-05T11:21:54.278Z,4.93
2018-12-05T11:24:32.735Z,5.37
2018-12-05T11:27:06.966Z,6.33
2018-12-05T11:30:11.861Z,5.93
2018-12-05T11:32:46.563Z,6.70
2018-12-05T11:35:21.726Z,6.30
2018-12-05T11:37:56.483Z,7.00
2018-12-05T11:40:30.489Z,8.07
2018-12-05T11:43:04.740Z,5.97
2018-12-05T11:45:38.512Z,5.83
2018-12-05T11:48:12.699Z,7.10
2018-12-05T11:50:46.793Z,5.45
2018-12-05T11:53:20.986Z,5.67
2018-12-05T11:55:54.958Z,5.93
2018-12-05T11:58:29.491Z,6.70
2018-12-05T12:01:03.543Z,8.60
2018-12-05T12:03:37.231Z,20.07
2018-12-05T12:06:11.971Z,27.00
2018-12-05T12:08:46.052Z,44.40
2018-12-05T12:11:20.299Z,132.30
2018-12-05T12:13:54.445Z,110.23
2018-12-05T12:16:29.296Z,52.10
2018-12-05T12:19:04.640Z,40.27
2018-12-05T12:21:38.726Z,26.40
2018-12-05T12:24:12.793Z,21.57
2018-12-05T12:26:47.026Z,12.30
2018-12-05T12:29:22.533Z,27.37
2018-12-05T12:31:56.476Z,17.83
2018-12-05T12:34:30.203Z,11.27
2018-12-05T12:37:06.867Z,9.53
2018-12-05T12:39:44.507Z,12.37
2018-12-05T12:42:18.716Z,14.20
2018-12-05T12:44:54.373Z,11.00
2018-12-05T12:47:29.630Z,13.07
2018-12-05T12:50:04.264Z,14.43
2018-12-05T12:52:38.985Z,18.23
2018-12-05T12:55:13.564Z,14.53
2018-12-05T12:57:48.037Z,9.80
2018-12-05T13:00:22.443Z,10.37
2018-12-05T13:02:56.274Z,7.20
2018-12-05T13:05:30.349Z,7.40
2018-12-05T13:08:04.399Z,6.50
2018-12-05T13:10:38.855Z,5.70
2018-12-05T13:13:12.627Z,7.53
2018-12-05T13:15:46.614Z,6.83
2018-12-05T13:18:20.730Z,10.00
2018-12-05T13:20:55.896Z,7.20
2018-12-05T13:23:29.478Z,7.90
2018-12-05T13:26:03.442Z,7.60
2018-12-05T13:28:37.616Z,9.77
2018-12-05T13:31:12.210Z,7.43
2018-12-05T13:33:46.255Z,9.70
2018-12-05T13:36:19.935Z,15.43
2018-12-05T13:38:53.541Z,28.60
2018-12-05T13:41:28.268Z,29.57
2018-12-05T13:44:01.803Z,28.43
2018-12-05T13:46:35.407Z,22.97
2018-12-05T13:49:09.389Z,19.57
2018-12-05T13:51:42.892Z,17.50
2018-12-05T13:54:17.581Z,12.97
2018-12-05T13:56:51.365Z,12.63
2018-12-05T13:59:25.268Z,14.57
2018-12-05T14:02:01.405Z,11.80
2018-12-05T14:04:37.800Z,13.17
2018-12-05T14:07:15.539Z,15.87
2018-12-05T14:09:51.795Z,15.20
2018-12-05T14:12:31.573Z,15.63
2018-12-05T14:15:05.581Z,13.67
2018-12-05T14:17:39.196Z,14.80
2018-12-05T14:20:13.797Z,18.77
2018-12-05T14:22:48.466Z,18.10
2018-12-05T14:25:22.609Z,17.50
2018-12-05T14:27:57.155Z,14.97
2018-12-05T14:30:30.994Z,13.80
2018-12-05T14:33:05.908Z,14.03
2018-12-05T14:35:39.784Z,14.77
2018-12-05T14:41:30.826Z,18.53
2018-12-05T14:44:04.982Z,22.03
2018-12-05T14:46:39.894Z,22.67
2018-12-05T14:49:13.744Z,22.77
2018-12-05T14:51:48.634Z,23.90
2018-12-05T14:54:23.096Z,18.48
2018-12-05T14:56:57.791Z,19.07
2018-12-05T14:59:33.235Z,17.13
2018-12-05T15:02:07.250Z,19.23
2018-12-05T15:04:44.240Z,17.77
2018-12-05T15:07:18.997Z,16.83
2018-12-05T15:09:52.548Z,21.37
2018-12-05T15:12:26.547Z,28.83
2018-12-05T15:15:00.078Z,39.73
2018-12-05T15:17:34.871Z,38.83
2018-12-05T15:20:09.453Z,28.60
2018-12-05T15:22:44.171Z,23.43
2018-12-05T15:25:19.833Z,21.27
2018-12-05T15:27:53.623Z,20.97
2018-12-05T15:30:28.901Z,17.97
2018-12-05T15:33:03.885Z,19.17
2018-12-05T15:35:37.494Z,18.67
2018-12-05T15:38:12.615Z,21.17
2018-12-05T15:40:50.873Z,19.33
2018-12-05T15:43:24.989Z,17.83
2018-12-05T15:46:01.107Z,13.93
2018-12-05T15:48:35.227Z,15.23
2018-12-05T15:51:10.217Z,13.67
2018-12-05T15:53:44.024Z,15.57
2018-12-05T15:56:17.660Z,14.23
2018-12-05T15:59:01.385Z,13.37
2018-12-05T16:01:38.122Z,13.77
2018-12-05T16:04:13.092Z,14.43
2018-12-05T16:06:48.543Z,15.23
2018-12-05T16:09:22.663Z,14.97
2018-12-05T16:11:57.694Z,16.13
2018-12-05T16:14:31.655Z,15.90
2018-12-05T16:17:05.292Z,13.70
2018-12-05T16:19:40.399Z,15.53
2018-12-05T16:22:14.497Z,14.17
2018-12-05T16:24:48.878Z,15.57
2018-12-05T16:27:24.321Z,14.07
2018-12-05T16:29:59.295Z,14.77
2018-12-05T16:32:32.942Z,15.10
2018-12-05T16:35:06.988Z,13.47
2018-12-05T16:37:40.854Z,12.13
2018-12-05T16:40:14.512Z,12.17
2018-12-05T16:42:48.939Z,14.10
2018-12-05T16:45:23.615Z,13.30
2018-12-05T16:47:58.154Z,13.20
2018-12-05T16:50:33.187Z,12.87
2018-12-05T16:53:07.031Z,13.23
2018-12-05T16:55:40.890Z,13.83
2018-12-05T16:58:14.644Z,12.87
2018-12-05T17:00:48.561Z,11.97
2018-12-05T17:03:22.498Z,11.57
2018-12-05T17:05:56.555Z,13.70
2018-12-05T17:08:30.255Z,12.47
2018-12-05T17:11:04.292Z,12.87
2018-12-05T17:13:43.495Z,12.10
2018-12-05T17:16:18.359Z,13.67
2018-12-05T17:18:52.288Z,13.50
2018-12-05T17:21:26.546Z,13.07
2018-12-05T17:24:00.198Z,15.13
2018-12-05T17:26:34.049Z,13.50
2018-12-05T17:29:09.257Z,12.30
2018-12-05T17:31:43.558Z,12.60
2018-12-05T17:34:17.442Z,13.07
2018-12-05T17:36:51.553Z,12.83
2018-12-05T17:39:26.435Z,11.93
2018-12-05T17:42:01.537Z,12.97
2018-12-05T17:44:35.518Z,14.10
2018-12-05T17:47:09.534Z,13.60
2018-12-05T17:49:43.725Z,13.00
2018-12-05T17:52:17.649Z,12.27
2018-12-05T17:54:51.297Z,12.73
2018-12-05T17:57:25.269Z,13.27
2018-12-05T17:59:59.172Z,11.63
2018-12-05T18:02:34.277Z,15.13
2018-12-05T18:05:09.203Z,11.93
2018-12-05T18:07:43.560Z,13.97
2018-12-05T18:10:17.400Z,12.37
2018-12-05T18:12:51.612Z,12.27
2018-12-05T18:15:25.559Z,12.17
2018-12-05T18:17:59.506Z,12.67
2018-12-05T18:20:33.399Z,13.27
2018-12-05T18:23:07.732Z,12.07
2018-12-05T18:25:43.832Z,12.97
2018-12-05T18:28:17.591Z,12.47
2018-12-05T18:30:53.370Z,13.37
2018-12-05T18:33:27.860Z,14.20
2018-12-05T18:36:01.751Z,11.73
2018-12-05T18:38:35.947Z,12.57
2018-12-05T18:41:09.933Z,13.00
2018-12-05T18:43:43.903Z,12.80
2018-12-05T18:46:17.825Z,13.40
2018-12-05T18:48:51.814Z,13.22
2018-12-05T18:51:25.707Z,14.80
2018-12-05T18:53:59.905Z,15.00
2018-12-05T18:56:33.662Z,12.88
2018-12-05T18:59:08.811Z,12.97
2018-12-05T19:01:42.824Z,11.70
2018-12-05T19:04:16.818Z,12.90
2018-12-05T19:06:50.871Z,12.77
2018-12-05T19:09:26.957Z,14.20
2018-12-05T19:12:01.171Z,12.97
2018-12-05T19:14:40.021Z,12.70
2018-12-05T19:17:13.919Z,11.80
2018-12-05T19:19:48.080Z,11.90
2018-12-05T19:22:24.469Z,12.50
2018-12-05T19:24:58.909Z,12.87
2018-12-05T19:27:32.712Z,11.97
2018-12-05T19:30:07.275Z,12.00
2018-12-05T19:32:42.343Z,11.90
2018-12-05T19:35:18.006Z,12.67
2018-12-05T19:37:52.003Z,13.07
2018-12-05T19:40:26.254Z,13.73
2018-12-05T19:43:00.038Z,12.23
2018-12-05T19:45:34.480Z,11.37
2018-12-05T19:48:08.327Z,11.93
2018-12-05T19:50:42.337Z,12.50
2018-12-05T19:53:16.197Z,12.07
2018-12-05T19:55:50.006Z,11.90
2018-12-05T19:58:23.786Z,10.63
2018-12-05T20:00:57.844Z,11.10
2018-12-05T20:03:31.802Z,11.57
2018-12-05T20:06:05.715Z,12.10
2018-12-05T20:08:40.430Z,10.83
2018-12-05T20:11:14.324Z,13.10
2018-12-05T20:13:48.133Z,13.60
2018-12-05T20:16:22.591Z,13.70
2018-12-05T20:18:56.167Z,14.87
2018-12-05T20:21:29.883Z,14.67
2018-12-05T20:24:03.926Z,16.73
2018-12-05T20:26:37.954Z,14.90
2018-12-05T20:29:11.979Z,14.00
2018-12-05T20:31:47.339Z,14.40
2018-12-05T20:34:23.706Z,13.70
2018-12-05T20:36:57.780Z,13.20
2018-12-05T20:39:31.797Z,11.33
2018-12-05T20:42:06.476Z,14.27
2018-12-05T20:44:40.421Z,12.30
2018-12-05T20:47:15.038Z,12.23
2018-12-05T20:49:48.934Z,15.27
2018-12-05T20:52:22.831Z,14.13
2018-12-05T20:54:57.703Z,14.07
2018-12-05T20:57:34.240Z,13.20
2018-12-05T21:00:08.081Z,17.43
2018-12-05T21:02:42.274Z,15.03
2018-12-05T21:05:16.553Z,13.53
2018-12-05T21:07:51.575Z,15.10
2018-12-05T21:10:25.287Z,13.30
2018-12-05T21:12:59.415Z,14.57
2018-12-05T21:15:33.526Z,12.10
2018-12-05T21:18:10.304Z,14.00
2018-12-05T21:20:44.521Z,11.43
2018-12-05T21:23:18.100Z,11.23
2018-12-05T21:25:51.948Z,11.33
2018-12-05T21:28:25.797Z,12.83
2018-12-05T21:31:01.433Z,11.70
2018-12-05T21:33:36.048Z,11.93
2018-12-05T21:36:11.342Z,11.87
2018-12-05T21:38:46.068Z,10.60
2018-12-05T21:41:20.788Z,10.60
2018-12-05T21:43:54.610Z,10.63
2018-12-05T21:46:28.630Z,13.67
2018-12-05T21:49:04.164Z,10.43
2018-12-05T21:51:39.763Z,10.63
2018-12-05T21:54:13.427Z,9.83
2018-12-05T21:56:47.359Z,11.37
2018-12-05T21:59:21.130Z,10.40
2018-12-05T22:01:54.635Z,9.93
2018-12-05T22:04:28.688Z,11.43
2018-12-05T22:07:03.462Z,12.40
2018-12-05T22:09:37.294Z,10.80
2018-12-05T22:12:12.230Z,12.30
2018-12-05T22:14:47.309Z,11.33
2018-12-05T22:17:21.273Z,11.60
2018-12-05T22:19:55.195Z,11.47
2018-12-05T22:22:30.217Z,13.20
2018-12-05T22:25:04.191Z,11.50
2018-12-05T22:27:39.071Z,12.97
2018-12-05T22:30:15.886Z,11.77
2018-12-05T22:32:49.851Z,10.27
2018-12-05T22:35:24.095Z,10.87
2018-12-05T22:38:00.041Z,10.90
2018-12-05T22:40:34.949Z,13.00
2018-12-05T22:43:09.108Z,12.07
2018-12-05T22:45:43.115Z,13.03
2018-12-05T22:48:17.731Z,12.60
2018-12-05T22:50:52.212Z,13.90
2018-12-05T22:53:26.439Z,14.30
2018-12-05T22:56:00.165Z,10.87
2018-12-05T22:58:35.230Z,11.53
2018-12-05T23:01:09.322Z,14.20
2018-12-05T23:03:43.055Z,13.60
2018-12-05T23:06:17.981Z,14.73
2018-12-05T23:08:52.584Z,15.83
2018-12-05T23:11:26.604Z,13.03
2018-12-05T23:14:01.963Z,13.87
2018-12-05T23:16:35.902Z,14.20
2018-12-05T23:19:10.216Z,13.73
2018-12-05T23:24:22.539Z,13.97
2018-12-05T23:26:56.352Z,15.10
2018-12-05T23:29:30.299Z,14.23
2018-12-05T23:32:04.389Z,14.77
2018-12-05T23:34:38.261Z,13.83
2018-12-05T23:37:12.501Z,13.53
2018-12-05T23:39:47.658Z,15.73
2018-12-05T23:42:21.525Z,14.93
2018-12-05T23:44:55.697Z,13.57
2018-12-05T23:47:30.471Z,15.07
2018-12-05T23:50:04.627Z,14.80
2018-12-05T23:52:39.548Z,14.97
2018-12-05T23:55:13.784Z,17.37
2018-12-05T23:57:47.898Z,15.47
